aviador You're here:

KQKG Decoded Metar

in
Report Time2017-05-26 12:55:00
UTC Time2017-05-26 13:11:06
Flight Rules vfr VFR
WindCalm
Visibility9999 m
Phenomena:N/A
Clouds:Few 060 Hf
Scattered 080 Hf
Expected CloudBase > 8,400 ft AGL from Temp-Dew spread
CeilingNone
Temp29°C
Dew Point08°C (27% RH)
Heat Index27.7°C
AAT28.6°C
QNH1010 hPa
Raw Report
METAR KQKG 261255Z AUTO 00000KT 9999 FEW060 SCT080 29/08 A2984 RMK
AO2 SLP032 WND DATA ESTMD T02900083=

Extra information for KQKG:More info

Social comments